createdAt,value
2019-02-26T00:01:18.525Z,46.08
2019-02-26T00:03:45.328Z,49.63
2019-02-26T00:06:16.194Z,48.87
2019-02-26T00:08:47.185Z,50.10
2019-02-26T00:11:15.317Z,52.27
2019-02-26T00:13:43.644Z,50.78
2019-02-26T00:16:14.948Z,52.00
2019-02-26T00:18:42.686Z,51.25
2019-02-26T00:21:11.550Z,50.20
2019-02-26T00:23:39.844Z,51.80
2019-02-26T00:26:10.456Z,53.27
2019-02-26T00:28:39.085Z,53.13
2019-02-26T00:31:07.607Z,58.83
2019-02-26T00:33:36.206Z,53.87
2019-02-26T00:36:04.867Z,51.85
2019-02-26T00:38:35.431Z,51.03
2019-02-26T00:41:06.084Z,49.23
2019-02-26T00:43:36.722Z,53.68
2019-02-26T00:46:05.689Z,52.73
2019-02-26T00:48:36.029Z,53.50
2019-02-26T00:51:04.348Z,52.65
2019-02-26T00:53:33.089Z,51.88
2019-02-26T00:56:03.129Z,56.33
2019-02-26T00:58:32.059Z,53.98
2019-02-26T01:01:00.989Z,57.30
2019-02-26T01:03:29.028Z,57.08
2019-02-26T01:05:59.099Z,54.73
2019-02-26T01:08:26.804Z,55.40
2019-02-26T01:10:56.956Z,56.35
2019-02-26T01:13:25.585Z,53.30
2019-02-26T01:15:54.567Z,49.33
2019-02-26T01:18:24.595Z,50.65
2019-02-26T01:20:54.907Z,53.10
2019-02-26T01:23:24.382Z,52.98
2019-02-26T01:25:54.670Z,53.83
2019-02-26T01:28:24.828Z,53.73
2019-02-26T01:30:55.559Z,56.05
2019-02-26T01:33:24.719Z,53.23
2019-02-26T01:35:55.056Z,52.70
2019-02-26T01:38:23.782Z,51.23
2019-02-26T01:40:54.240Z,49.95
2019-02-26T01:43:21.971Z,51.42
2019-02-26T01:45:51.526Z,56.95
2019-02-26T01:48:20.416Z,50.07
2019-02-26T01:50:48.766Z,56.05
2019-02-26T01:53:19.239Z,53.33
2019-02-26T01:55:48.390Z,56.70
2019-02-26T01:58:17.260Z,53.02
2019-02-26T02:00:46.141Z,51.73
2019-02-26T02:03:14.192Z,65.12
2019-02-26T02:05:45.278Z,63.95
2019-02-26T02:08:13.725Z,66.28
2019-02-26T02:10:43.052Z,65.03
2019-02-26T02:13:11.509Z,61.98
2019-02-26T02:15:40.013Z,68.10
2019-02-26T02:18:09.249Z,66.73
2019-02-26T02:20:37.295Z,66.90
2019-02-26T02:23:07.059Z,66.07
2019-02-26T02:25:38.020Z,67.33
2019-02-26T02:28:06.351Z,66.80
2019-02-26T02:30:35.573Z,65.35
2019-02-26T02:33:04.244Z,69.60
2019-02-26T02:35:32.323Z,71.80
2019-02-26T02:38:02.965Z,61.60
2019-02-26T02:40:30.448Z,65.83
2019-02-26T02:43:04.001Z,69.42
2019-02-26T02:45:28.563Z,66.87
2019-02-26T02:48:00.312Z,67.22
2019-02-26T02:50:26.282Z,65.67
2019-02-26T02:52:56.138Z,64.37
2019-02-26T02:55:24.316Z,71.45
2019-02-26T02:57:54.967Z,70.90
2019-02-26T03:00:23.883Z,65.92
2019-02-26T03:02:53.792Z,68.30
2019-02-26T03:05:22.218Z,69.87
2019-02-26T03:07:53.314Z,69.73
2019-02-26T03:10:20.243Z,69.03
2019-02-26T03:12:52.179Z,71.35
2019-02-26T03:15:18.622Z,70.20
2019-02-26T03:17:47.005Z,72.08
2019-02-26T03:20:16.295Z,66.90
2019-02-26T03:22:48.376Z,68.33
2019-02-26T03:25:17.317Z,68.05
2019-02-26T03:27:44.250Z,66.73
2019-02-26T03:30:20.505Z,64.92
2019-02-26T03:32:46.128Z,69.57
2019-02-26T03:35:16.675Z,69.17
2019-02-26T03:37:43.961Z,68.37
2019-02-26T03:40:13.164Z,70.00
2019-02-26T03:42:43.333Z,71.83
2019-02-26T03:45:12.399Z,68.57
2019-02-26T03:47:40.729Z,67.37
2019-02-26T03:50:09.720Z,72.40
2019-02-26T03:52:38.066Z,75.00
2019-02-26T03:55:08.813Z,71.20
2019-02-26T03:57:40.972Z,70.47
2019-02-26T04:00:08.713Z,68.70
2019-02-26T04:02:39.902Z,68.65
2019-02-26T04:05:08.849Z,74.90
2019-02-26T04:07:37.522Z,74.70
2019-02-26T04:10:06.292Z,73.83
2019-02-26T04:12:39.292Z,74.00
2019-02-26T04:15:05.324Z,67.95
2019-02-26T04:17:36.827Z,69.82
2019-02-26T04:20:05.580Z,78.22
2019-02-26T04:22:35.073Z,74.87
2019-02-26T04:25:09.291Z,73.50
2019-02-26T04:27:49.132Z,76.77
2019-02-26T04:30:39.350Z,76.77
2019-02-26T04:33:14.527Z,73.20
2019-02-26T04:35:55.561Z,72.05
2019-02-26T04:38:31.795Z,78.22
2019-02-26T04:41:06.873Z,74.45
2019-02-26T04:44:01.300Z,73.45
2019-02-26T04:46:53.794Z,69.50
2019-02-26T04:49:21.951Z,71.57
2019-02-26T04:51:50.579Z,72.23
2019-02-26T04:54:23.963Z,75.97
2019-02-26T04:56:50.953Z,75.42
2019-02-26T04:59:19.671Z,79.90
2019-02-26T05:01:49.915Z,76.30
2019-02-26T05:04:17.840Z,75.03
2019-02-26T05:06:45.885Z,80.60
2019-02-26T05:09:14.659Z,83.20
2019-02-26T05:11:43.299Z,76.40
2019-02-26T05:14:14.281Z,88.60
2019-02-26T05:16:41.701Z,85.67
2019-02-26T05:19:10.636Z,93.52
2019-02-26T05:21:39.795Z,81.37
2019-02-26T05:24:08.210Z,78.90
2019-02-26T05:26:36.405Z,73.83
2019-02-26T05:29:05.283Z,87.35
2019-02-26T05:31:35.790Z,88.05
2019-02-26T05:34:03.739Z,102.47
2019-02-26T05:36:34.319Z,95.65
2019-02-26T05:39:02.342Z,92.42
2019-02-26T05:41:31.119Z,89.92
2019-02-26T05:44:01.860Z,89.95
2019-02-26T05:46:29.590Z,92.97
2019-02-26T05:48:58.133Z,87.25
2019-02-26T05:51:27.473Z,94.60
2019-02-26T05:54:01.219Z,94.15
2019-02-26T05:56:26.900Z,91.83
2019-02-26T05:58:55.746Z,88.40
2019-02-26T06:01:25.056Z,86.08
2019-02-26T06:03:53.736Z,88.22
2019-02-26T06:06:22.497Z,87.12
2019-02-26T06:08:51.089Z,85.77
2019-02-26T06:11:19.601Z,87.88
2019-02-26T06:13:48.364Z,88.40
2019-02-26T06:16:16.417Z,92.40
2019-02-26T06:18:46.463Z,93.58
2019-02-26T06:21:16.502Z,98.70
2019-02-26T06:23:46.173Z,96.00
2019-02-26T06:26:17.621Z,98.40
2019-02-26T06:28:46.171Z,95.20
2019-02-26T06:31:16.668Z,96.60
2019-02-26T06:33:45.932Z,96.22
2019-02-26T06:36:14.407Z,91.15
2019-02-26T06:38:43.100Z,91.22
2019-02-26T06:41:11.487Z,92.30
2019-02-26T06:43:39.930Z,88.97
2019-02-26T06:46:11.726Z,94.85
2019-02-26T06:48:39.863Z,88.75
2019-02-26T06:51:08.609Z,87.92
2019-02-26T06:53:37.296Z,92.00
2019-02-26T06:56:05.363Z,96.72
2019-02-26T06:58:33.414Z,94.15
2019-02-26T07:01:01.893Z,94.97
2019-02-26T07:03:29.919Z,91.20
2019-02-26T07:06:01.644Z,86.05
2019-02-26T07:08:30.922Z,93.75
2019-02-26T07:10:59.164Z,93.25
2019-02-26T07:13:27.576Z,81.92
2019-02-26T07:15:56.673Z,84.23
2019-02-26T07:18:25.093Z,93.47
2019-02-26T07:20:55.156Z,97.27
2019-02-26T07:23:23.164Z,94.80
2019-02-26T07:25:51.532Z,94.25
2019-02-26T07:28:20.613Z,94.05
2019-02-26T07:30:49.953Z,88.27
2019-02-26T07:33:18.402Z,91.90
2019-02-26T07:35:46.776Z,93.50
2019-02-26T07:38:16.213Z,89.22
2019-02-26T07:40:44.560Z,86.50
2019-02-26T07:43:14.906Z,88.62
2019-02-26T07:45:42.691Z,91.37
2019-02-26T07:48:16.038Z,92.45
2019-02-26T07:50:44.114Z,88.45
2019-02-26T07:53:14.361Z,84.42
2019-02-26T07:55:42.516Z,83.07
2019-02-26T07:58:11.647Z,85.07
2019-02-26T08:00:42.894Z,77.87
2019-02-26T08:03:10.369Z,79.47
2019-02-26T08:05:38.740Z,86.00
2019-02-26T08:08:07.112Z,85.57
2019-02-26T08:10:39.417Z,83.47
2019-02-26T08:13:07.871Z,86.82
2019-02-26T08:15:37.429Z,84.58
2019-02-26T08:18:05.609Z,88.70
2019-02-26T08:20:35.686Z,88.63
2019-02-26T08:23:03.732Z,82.90
2019-02-26T08:25:32.067Z,84.63
2019-02-26T08:28:01.382Z,88.47
2019-02-26T08:30:29.907Z,87.10
2019-02-26T08:32:59.014Z,87.50
2019-02-26T08:35:28.269Z,89.13
2019-02-26T08:37:56.321Z,87.37
2019-02-26T08:40:25.140Z,84.40
2019-02-26T08:42:53.812Z,83.57
2019-02-26T08:45:23.609Z,85.87
2019-02-26T08:47:52.303Z,83.10
2019-02-26T08:50:20.336Z,82.07
2019-02-26T08:52:52.318Z,85.45
2019-02-26T08:55:21.514Z,82.97
2019-02-26T08:57:51.286Z,86.20
2019-02-26T09:00:18.328Z,86.10
2019-02-26T09:02:50.545Z,80.45
2019-02-26T09:05:17.643Z,82.55
2019-02-26T09:07:47.623Z,81.75
2019-02-26T09:10:17.568Z,80.42
2019-02-26T09:12:48.575Z,81.37
2019-02-26T09:15:16.058Z,82.02
2019-02-26T09:17:44.433Z,84.15
2019-02-26T09:20:14.672Z,89.52
2019-02-26T09:22:45.732Z,93.40
2019-02-26T09:25:13.776Z,88.97
2019-02-26T09:27:43.025Z,90.70
2019-02-26T09:30:14.062Z,85.13
2019-02-26T09:32:44.755Z,76.50
2019-02-26T09:35:12.937Z,79.30
2019-02-26T09:37:42.807Z,84.35
2019-02-26T09:40:12.340Z,86.40
2019-02-26T09:42:41.008Z,83.03
2019-02-26T09:45:10.447Z,85.47
2019-02-26T09:47:39.733Z,88.10
2019-02-26T09:50:10.376Z,81.67
2019-02-26T09:52:38.817Z,84.60
2019-02-26T09:55:10.624Z,82.67
2019-02-26T09:57:38.792Z,80.03
2019-02-26T10:00:09.224Z,79.65
2019-02-26T10:02:37.792Z,79.70
2019-02-26T10:05:08.518Z,78.75
2019-02-26T10:07:38.651Z,76.60
2019-02-26T10:10:09.209Z,80.53
2019-02-26T10:12:37.449Z,80.38
2019-02-26T10:15:06.952Z,80.97
2019-02-26T10:17:37.107Z,81.80
2019-02-26T10:20:09.179Z,76.30
2019-02-26T10:22:38.493Z,79.37
2019-02-26T10:25:06.727Z,77.85
2019-02-26T10:27:36.099Z,79.40
2019-02-26T10:30:07.767Z,76.55
2019-02-26T10:32:34.751Z,78.85
2019-02-26T10:35:04.618Z,83.58
2019-02-26T10:37:34.190Z,80.30
2019-02-26T10:40:02.895Z,75.55
2019-02-26T10:42:39.607Z,75.67
2019-02-26T10:45:00.681Z,78.40
2019-02-26T10:47:29.881Z,79.45
2019-02-26T10:49:58.995Z,78.25
2019-02-26T10:52:28.690Z,77.32
2019-02-26T10:54:57.283Z,73.02
2019-02-26T10:57:28.499Z,76.90
2019-02-26T10:59:59.165Z,79.30
2019-02-26T11:02:27.937Z,75.72
2019-02-26T11:04:56.458Z,74.00
2019-02-26T11:07:26.462Z,75.55
2019-02-26T11:09:56.208Z,74.15
2019-02-26T11:12:27.748Z,78.43
2019-02-26T11:14:56.340Z,73.45
2019-02-26T11:17:26.383Z,75.75
2019-02-26T11:19:55.532Z,74.00
2019-02-26T11:22:25.786Z,75.55
2019-02-26T11:24:56.102Z,76.20
2019-02-26T11:27:25.188Z,71.30
2019-02-26T11:29:54.658Z,72.47
2019-02-26T11:32:23.864Z,71.70
2019-02-26T11:34:52.784Z,71.37
2019-02-26T11:37:22.638Z,73.05
2019-02-26T11:39:52.798Z,74.53
2019-02-26T11:42:24.155Z,73.28
2019-02-26T11:44:52.546Z,68.80
2019-02-26T11:47:21.125Z,73.70
2019-02-26T11:49:49.515Z,70.97
2019-02-26T11:52:19.624Z,72.75
2019-02-26T11:54:47.560Z,71.85
2019-02-26T11:57:17.668Z,72.78
2019-02-26T11:59:45.286Z,67.78
2019-02-26T12:02:13.339Z,72.00
2019-02-26T12:04:41.737Z,68.30
2019-02-26T12:07:10.064Z,67.80
2019-02-26T12:09:40.781Z,68.42
2019-02-26T12:12:09.247Z,67.90
2019-02-26T12:14:41.147Z,66.70
2019-02-26T12:17:08.216Z,66.77
2019-02-26T12:19:37.165Z,66.95
2019-02-26T12:22:05.994Z,66.10
2019-02-26T12:24:36.163Z,65.70
2019-02-26T12:27:04.624Z,65.95
2019-02-26T12:29:33.002Z,65.65
2019-02-26T12:32:01.893Z,66.82
2019-02-26T12:34:31.568Z,64.10
2019-02-26T12:37:02.681Z,62.13
2019-02-26T12:39:31.369Z,65.10
2019-02-26T12:41:59.892Z,63.45
2019-02-26T12:44:29.083Z,60.43
2019-02-26T12:47:00.477Z,61.23
2019-02-26T12:49:32.615Z,59.38
2019-02-26T12:52:03.312Z,59.45
2019-02-26T12:54:33.295Z,57.58
2019-02-26T12:57:00.621Z,57.60
2019-02-26T12:59:30.364Z,56.93
2019-02-26T13:01:59.566Z,54.67
2019-02-26T13:04:28.150Z,59.75
2019-02-26T13:06:56.857Z,55.25
2019-02-26T13:09:26.888Z,56.92
2019-02-26T13:12:00.950Z,51.98
2019-02-26T13:14:26.227Z,52.78
2019-02-26T13:16:56.967Z,56.30
2019-02-26T13:19:29.915Z,57.10
2019-02-26T13:22:04.900Z,55.15
2019-02-26T13:24:26.851Z,55.75
2019-02-26T13:26:59.253Z,51.55
2019-02-26T13:29:25.889Z,48.10
2019-02-26T13:31:57.181Z,53.17
2019-02-26T13:34:24.351Z,51.10
2019-02-26T13:36:55.984Z,52.45
2019-02-26T13:39:26.116Z,48.87
2019-02-26T13:41:58.480Z,48.63
2019-02-26T13:44:22.215Z,51.05
2019-02-26T13:46:50.539Z,53.07
2019-02-26T13:49:18.770Z,56.20
2019-02-26T13:51:47.354Z,48.13
2019-02-26T13:54:15.760Z,50.05
2019-02-26T13:56:44.509Z,49.77
2019-02-26T13:59:13.591Z,54.97
2019-02-26T14:01:42.348Z,51.13
2019-02-26T14:04:10.540Z,52.17
2019-02-26T14:06:38.944Z,51.28
2019-02-26T14:09:07.593Z,57.98
2019-02-26T14:11:36.185Z,54.88
2019-02-26T14:14:04.332Z,58.80
2019-02-26T14:16:34.352Z,53.70
2019-02-26T14:19:02.815Z,56.65
2019-02-26T14:21:31.338Z,53.80
2019-02-26T14:23:59.499Z,51.75
2019-02-26T14:26:29.805Z,53.25
2019-02-26T14:28:58.452Z,53.17
2019-02-26T14:31:26.649Z,49.10
2019-02-26T14:33:55.846Z,51.33
2019-02-26T14:36:24.684Z,47.78
2019-02-26T14:38:52.919Z,51.37
2019-02-26T14:41:21.068Z,55.50
2019-02-26T14:43:49.128Z,53.60
2019-02-26T14:46:17.257Z,50.73
2019-02-26T14:48:45.752Z,54.10
2019-02-26T14:51:14.341Z,49.95
2019-02-26T14:53:42.878Z,50.95
2019-02-26T14:56:13.689Z,50.25
2019-02-26T14:58:42.135Z,50.50
2019-02-26T15:01:10.327Z,43.02
2019-02-26T15:03:39.103Z,44.87
2019-02-26T15:06:07.687Z,45.20
2019-02-26T15:08:36.007Z,44.03
2019-02-26T15:11:04.447Z,44.83
2019-02-26T15:13:32.830Z,41.75
2019-02-26T15:16:01.231Z,44.60
2019-02-26T15:18:29.334Z,45.15
2019-02-26T15:20:57.458Z,42.05
2019-02-26T15:23:25.503Z,44.25
2019-02-26T15:25:53.776Z,45.00
2019-02-26T15:28:21.835Z,44.10
2019-02-26T15:30:50.149Z,46.53
2019-02-26T15:33:18.572Z,50.23
2019-02-26T15:35:46.998Z,50.88
2019-02-26T15:38:15.101Z,48.65
2019-02-26T15:40:43.421Z,46.13
2019-02-26T15:43:12.063Z,49.30
2019-02-26T15:45:40.160Z,50.95
2019-02-26T15:48:08.440Z,49.07
2019-02-26T15:50:37.717Z,49.00
2019-02-26T15:53:07.350Z,52.75
2019-02-26T15:55:35.587Z,58.30
2019-02-26T15:58:06.162Z,56.42
2019-02-26T16:00:37.442Z,53.75
2019-02-26T16:03:04.587Z,50.98
2019-02-26T16:05:32.992Z,52.70
2019-02-26T16:08:01.302Z,44.60
2019-02-26T16:10:29.393Z,48.73
2019-02-26T16:13:04.595Z,45.50
2019-02-26T16:15:33.248Z,45.33
2019-02-26T16:18:01.377Z,43.52
2019-02-26T16:20:30.504Z,44.77
2019-02-26T16:22:58.572Z,49.27
2019-02-26T16:25:26.954Z,46.75
2019-02-26T16:27:55.060Z,44.38
2019-02-26T16:30:23.662Z,45.08
2019-02-26T16:32:52.472Z,43.92
2019-02-26T16:35:24.800Z,44.73
2019-02-26T16:37:51.545Z,45.10
2019-02-26T16:40:19.839Z,44.45
2019-02-26T16:42:47.932Z,45.92
2019-02-26T16:45:17.615Z,50.33
2019-02-26T16:47:48.637Z,53.87
2019-02-26T16:50:16.478Z,53.10
2019-02-26T16:52:45.302Z,52.13
2019-02-26T16:55:15.203Z,52.05
2019-02-26T16:57:43.613Z,58.63
2019-02-26T17:00:12.851Z,50.80
2019-02-26T17:02:42.484Z,47.17
2019-02-26T17:05:14.321Z,47.03
2019-02-26T17:07:40.632Z,50.20
2019-02-26T17:10:10.357Z,49.88
2019-02-26T17:12:38.391Z,50.70
2019-02-26T17:15:07.433Z,47.58
2019-02-26T17:17:36.849Z,46.40
2019-02-26T17:20:05.475Z,49.67
2019-02-26T17:22:34.158Z,50.50
2019-02-26T17:25:02.944Z,46.60
2019-02-26T17:27:32.042Z,43.52
2019-02-26T17:30:00.174Z,46.73
2019-02-26T17:32:29.203Z,45.78
2019-02-26T17:34:57.581Z,48.58
2019-02-26T17:37:26.185Z,46.25
2019-02-26T17:39:54.219Z,49.83
2019-02-26T17:42:22.665Z,52.60
2019-02-26T17:44:50.735Z,45.90
2019-02-26T17:47:19.401Z,44.60
2019-02-26T17:49:48.046Z,48.25
2019-02-26T17:52:16.479Z,45.43
2019-02-26T17:54:44.578Z,42.73
2019-02-26T17:57:12.991Z,41.60
2019-02-26T17:59:41.462Z,44.00
2019-02-26T18:02:10.349Z,42.53
2019-02-26T18:04:38.787Z,46.60
2019-02-26T18:07:07.448Z,45.15
2019-02-26T18:09:35.773Z,48.13
2019-02-26T18:12:03.822Z,44.35
2019-02-26T18:14:32.991Z,44.98
2019-02-26T18:17:01.789Z,48.10
2019-02-26T18:19:30.194Z,45.70
2019-02-26T18:21:58.523Z,47.43
2019-02-26T18:24:27.328Z,44.40
2019-02-26T18:26:55.716Z,45.80
2019-02-26T18:29:25.660Z,43.52
2019-02-26T18:31:53.475Z,45.43
2019-02-26T18:34:22.172Z,49.20
2019-02-26T18:36:50.615Z,62.90
2019-02-26T18:39:22.383Z,46.97
2019-02-26T18:41:50.823Z,44.20
2019-02-26T18:44:20.545Z,45.92
2019-02-26T18:46:48.797Z,45.08
2019-02-26T18:49:17.168Z,44.00
2019-02-26T18:51:45.213Z,45.05
2019-02-26T18:54:13.610Z,49.10
2019-02-26T18:56:41.676Z,48.70
2019-02-26T18:59:10.005Z,47.23
2019-02-26T19:01:38.338Z,45.73
2019-02-26T19:04:06.417Z,46.30
2019-02-26T19:06:34.846Z,43.58
2019-02-26T19:09:03.585Z,43.75
2019-02-26T19:11:31.684Z,44.33
2019-02-26T19:14:00.330Z,43.15
2019-02-26T19:16:28.530Z,46.60
2019-02-26T19:18:56.618Z,44.60
2019-02-26T19:21:25.027Z,44.27
2019-02-26T19:23:53.076Z,45.35
2019-02-26T19:26:21.808Z,46.83
2019-02-26T19:28:50.607Z,48.10
2019-02-26T19:31:20.806Z,45.10
2019-02-26T19:33:48.868Z,46.73
2019-02-26T19:36:16.949Z,44.30
2019-02-26T19:38:45.342Z,45.35
2019-02-26T19:41:14.421Z,43.63
2019-02-26T19:43:42.752Z,45.90
2019-02-26T19:46:11.207Z,44.85
2019-02-26T19:48:39.514Z,45.35
2019-02-26T19:51:07.962Z,41.58
2019-02-26T19:53:35.950Z,41.88
2019-02-26T19:56:04.213Z,42.23
2019-02-26T19:58:32.274Z,41.92
2019-02-26T20:01:00.384Z,44.70
2019-02-26T20:03:39.301Z,41.60
2019-02-26T20:05:58.769Z,47.43
2019-02-26T20:08:27.140Z,44.70
2019-02-26T20:10:57.650Z,43.98
2019-02-26T20:13:25.732Z,43.80
2019-02-26T20:15:54.935Z,44.58
2019-02-26T20:18:25.991Z,44.63
2019-02-26T20:20:53.533Z,44.55
2019-02-26T20:23:22.156Z,46.75
2019-02-26T20:25:50.501Z,47.43
2019-02-26T20:28:18.890Z,45.45
2019-02-26T20:30:46.911Z,49.18
2019-02-26T20:33:15.461Z,48.05
2019-02-26T20:35:45.395Z,49.33
2019-02-26T20:38:13.508Z,53.08
2019-02-26T20:40:41.573Z,47.83
2019-02-26T20:43:09.628Z,46.30
2019-02-26T20:45:37.713Z,47.60
2019-02-26T20:48:06.157Z,47.60
2019-02-26T20:50:34.250Z,46.20
2019-02-26T20:53:05.617Z,43.55
2019-02-26T20:55:33.712Z,63.90
2019-02-26T20:58:02.080Z,64.55
2019-02-26T21:00:30.405Z,76.42
2019-02-26T21:02:59.067Z,108.25
2019-02-26T21:05:27.144Z,87.73
2019-02-26T21:07:58.076Z,81.67
2019-02-26T21:10:25.221Z,70.80
2019-02-26T21:12:53.600Z,57.45
2019-02-26T21:15:21.993Z,52.75
2019-02-26T21:17:50.679Z,57.10
2019-02-26T21:20:19.264Z,56.23
2019-02-26T21:22:47.645Z,56.90
2019-02-26T21:25:15.728Z,67.95
2019-02-26T21:27:43.788Z,56.05
2019-02-26T21:30:12.777Z,51.60
2019-02-26T21:32:40.816Z,49.80
2019-02-26T21:35:09.138Z,50.60
2019-02-26T21:37:37.696Z,51.63
2019-02-26T21:40:07.141Z,50.17
2019-02-26T21:42:35.956Z,56.08
2019-02-26T21:45:04.564Z,54.60
2019-02-26T21:47:32.609Z,55.50
2019-02-26T21:50:01.059Z,56.53
2019-02-26T21:52:29.501Z,58.42
2019-02-26T21:55:01.213Z,57.40
2019-02-26T21:57:27.907Z,56.08
2019-02-26T21:59:56.697Z,58.17
2019-02-26T22:02:24.907Z,57.30
2019-02-26T22:04:53.253Z,55.67
2019-02-26T22:07:22.350Z,56.45
2019-02-26T22:09:50.460Z,62.45
2019-02-26T22:12:18.832Z,56.48
2019-02-26T22:14:47.469Z,62.45
2019-02-26T22:17:15.612Z,59.50
2019-02-26T22:19:43.976Z,58.40
2019-02-26T22:22:12.031Z,59.88
2019-02-26T22:24:40.725Z,62.25
2019-02-26T22:27:09.326Z,59.35
2019-02-26T22:29:37.771Z,61.95
2019-02-26T22:32:05.857Z,64.77
2019-02-26T22:34:34.132Z,58.98
2019-02-26T22:37:07.000Z,64.10
2019-02-26T22:39:33.219Z,62.30
2019-02-26T22:42:01.583Z,62.00
2019-02-26T22:44:29.617Z,63.00
2019-02-26T22:46:59.203Z,63.10
2019-02-26T22:49:27.373Z,61.08
2019-02-26T22:51:58.471Z,64.13
2019-02-26T22:54:25.440Z,64.82
2019-02-26T22:56:56.635Z,67.97
2019-02-26T22:59:24.043Z,66.57
2019-02-26T23:01:53.108Z,66.97
2019-02-26T23:04:21.950Z,64.77
2019-02-26T23:06:50.431Z,62.75
2019-02-26T23:09:24.106Z,64.70
2019-02-26T23:11:52.623Z,61.95
2019-02-26T23:14:21.082Z,65.93
2019-02-26T23:16:52.035Z,64.15
2019-02-26T23:19:20.789Z,66.00
2019-02-26T23:21:49.990Z,66.93
2019-02-26T23:24:19.611Z,67.40
2019-02-26T23:26:47.661Z,72.92
2019-02-26T23:29:16.376Z,67.42
2019-02-26T23:31:44.416Z,66.87
2019-02-26T23:34:13.033Z,67.87
2019-02-26T23:36:41.924Z,72.67
2019-02-26T23:39:11.740Z,69.10
2019-02-26T23:41:39.813Z,73.52
2019-02-26T23:44:08.933Z,74.32
2019-02-26T23:46:37.203Z,71.17
2019-02-26T23:49:06.155Z,67.60
2019-02-26T23:51:34.946Z,70.97
2019-02-26T23:54:04.691Z,65.22
2019-02-26T23:56:33.546Z,69.87
2019-02-26T23:59:04.217Z,69.42
